sensor_id;sensor_type;location;lat;lon;timestamp;pressure;altitude;pressure_sealevel;temperature;humidity
11099;BME280;12223;42.650;23.364;2022-12-07T00:01:21;94629.47;;;6.03;100.00
11099;BME280;12223;42.650;23.364;2022-12-07T00:03:50;94635.56;;;6.11;100.00
11099;BME280;12223;42.650;23.364;2022-12-07T00:06:19;94644.53;;;5.95;100.00
11099;BME280;12223;42.650;23.364;2022-12-07T00:08:46;94626.00;;;5.96;100.00
11099;BME280;12223;42.650;23.364;2022-12-07T00:11:15;94636.50;;;6.03;100.00
11099;BME280;12223;42.650;23.364;2022-12-07T00:13:43;94628.41;;;5.91;100.00
11099;BME280;12223;42.650;23.364;2022-12-07T00:16:12;94623.88;;;5.79;100.00
11099;BME280;12223;42.650;23.364;2022-12-07T00:18:39;94618.28;;;5.88;100.00
11099;BME280;12223;42.650;23.364;2022-12-07T00:21:10;94625.19;;;5.96;100.00
11099;BME280;12223;42.650;23.364;2022-12-07T00:23:38;94621.44;;;5.77;100.00
11099;BME280;12223;42.650;23.364;2022-12-07T00:26:05;94618.22;;;5.75;100.00
11099;BME280;12223;42.650;23.364;2022-12-07T00:28:33;94613.16;;;5.74;100.00
11099;BME280;12223;42.650;23.364;2022-12-07T00:31:01;94607.53;;;5.77;100.00
11099;BME280;12223;42.650;23.364;2022-12-07T00:33:28;94609.53;;;5.75;100.00
11099;BME280;12223;42.650;23.364;2022-12-07T00:35:56;94605.81;;;5.56;100.00
11099;BME280;12223;42.650;23.364;2022-12-07T00:38:24;94593.03;;;5.46;100.00
11099;BME280;12223;42.650;23.364;2022-12-07T00:40:58;94599.41;;;5.65;100.00
11099;BME280;12223;42.650;23.364;2022-12-07T00:43:25;94590.56;;;5.38;100.00
11099;BME280;12223;42.650;23.364;2022-12-07T00:45:52;94574.00;;;5.65;100.00
11099;BME280;12223;42.650;23.364;2022-12-07T00:48:20;94591.31;;;5.94;100.00
11099;BME280;12223;42.650;23.364;2022-12-07T00:50:47;94603.81;;;5.92;100.00
11099;BME280;12223;42.650;23.364;2022-12-07T00:53:15;94603.03;;;5.98;100.00
11099;BME280;12223;42.650;23.364;2022-12-07T00:55:43;94613.94;;;6.02;100.00
11099;BME280;12223;42.650;23.364;2022-12-07T00:58:10;94608.91;;;6.00;100.00
11099;BME280;12223;42.650;23.364;2022-12-07T01:00:39;94624.03;;;6.05;100.00
11099;BME280;12223;42.650;23.364;2022-12-07T01:03:07;94615.78;;;5.74;100.00
11099;BME280;12223;42.650;23.364;2022-12-07T01:05:34;94586.13;;;5.39;100.00
11099;BME280;12223;42.650;23.364;2022-12-07T01:08:02;94567.25;;;5.84;100.00
11099;BME280;12223;42.650;23.364;2022-12-07T01:10:29;94594.06;;;5.86;100.00
11099;BME280;12223;42.650;23.364;2022-12-07T01:12:58;94596.31;;;5.89;100.00
11099;BME280;12223;42.650;23.364;2022-12-07T01:15:25;94596.34;;;5.96;100.00
11099;BME280;12223;42.650;23.364;2022-12-07T01:17:52;94601.56;;;5.89;100.00
11099;BME280;12223;42.650;23.364;2022-12-07T01:20:20;94607.75;;;5.82;100.00
11099;BME280;12223;42.650;23.364;2022-12-07T01:22:46;94608.56;;;5.82;100.00
11099;BME280;12223;42.650;23.364;2022-12-07T01:25:13;94595.84;;;5.79;100.00
11099;BME280;12223;42.650;23.364;2022-12-07T01:27:40;94597.22;;;5.69;100.00
11099;BME280;12223;42.650;23.364;2022-12-07T01:30:10;94586.31;;;5.65;100.00
11099;BME280;12223;42.650;23.364;2022-12-07T01:32:37;94582.53;;;5.74;100.00
11099;BME280;12223;42.650;23.364;2022-12-07T01:35:05;94582.59;;;5.53;100.00
11099;BME280;12223;42.650;23.364;2022-12-07T01:37:34;94567.81;;;5.39;100.00
11099;BME280;12223;42.650;23.364;2022-12-07T01:40:02;94561.31;;;5.62;100.00
11099;BME280;12223;42.650;23.364;2022-12-07T01:42:29;94558.69;;;5.62;100.00
11099;BME280;12223;42.650;23.364;2022-12-07T01:50:34;94584.59;;;5.85;100.00
11099;BME280;12223;42.650;23.364;2022-12-07T01:53:03;94583.59;;;5.86;100.00
11099;BME280;12223;42.650;23.364;2022-12-07T01:55:32;94587.22;;;5.85;100.00
11099;BME280;12223;42.650;23.364;2022-12-07T01:58:00;94574.84;;;5.73;100.00
11099;BME280;12223;42.650;23.364;2022-12-07T02:00:27;94571.19;;;5.67;100.00
11099;BME280;12223;42.650;23.364;2022-12-07T02:02:57;94557.66;;;5.63;100.00
11099;BME280;12223;42.650;23.364;2022-12-07T02:05:28;94568.59;;;5.67;100.00
11099;BME280;12223;42.650;23.364;2022-12-07T02:07:56;94564.09;;;5.54;100.00
11099;BME280;12223;42.650;23.364;2022-12-07T02:10:26;94548.59;;;5.25;100.00
11099;BME280;12223;42.650;23.364;2022-12-07T02:12:55;94537.88;;;5.20;100.00
11099;BME280;12223;42.650;23.364;2022-12-07T02:15:29;94536.19;;;5.40;100.00
11099;BME280;12223;42.650;23.364;2022-12-07T02:18:03;94523.53;;;5.09;100.00
11099;BME280;12223;42.650;23.364;2022-12-07T02:20:39;94504.03;;;4.84;100.00
11099;BME280;12223;42.650;23.364;2022-12-07T02:26:32;94498.41;;;5.15;100.00
11099;BME280;12223;42.650;23.364;2022-12-07T02:29:16;94500.78;;;5.10;100.00
11099;BME280;12223;42.650;23.364;2022-12-07T02:31:51;94504.47;;;5.22;100.00
11099;BME280;12223;42.650;23.364;2022-12-07T02:34:28;94501.47;;;5.25;100.00
11099;BME280;12223;42.650;23.364;2022-12-07T02:36:59;94501.69;;;5.23;100.00
11099;BME280;12223;42.650;23.364;2022-12-07T02:39:32;94501.69;;;5.23;100.00
11099;BME280;12223;42.650;23.364;2022-12-07T02:42:09;94509.44;;;5.10;100.00
11099;BME280;12223;42.650;23.364;2022-12-07T02:44:40;94516.44;;;5.38;100.00
11099;BME280;12223;42.650;23.364;2022-12-07T02:47:11;94526.69;;;5.33;100.00
11099;BME280;12223;42.650;23.364;2022-12-07T02:49:40;94521.22;;;5.28;100.00
11099;BME280;12223;42.650;23.364;2022-12-07T02:52:07;94520.78;;;5.17;100.00
11099;BME280;12223;42.650;23.364;2022-12-07T02:54:34;94528.13;;;5.07;100.00
11099;BME280;12223;42.650;23.364;2022-12-07T02:57:09;94527.91;;;5.02;100.00
11099;BME280;12223;42.650;23.364;2022-12-07T02:59:50;94517.50;;;5.09;100.00
11099;BME280;12223;42.650;23.364;2022-12-07T03:02:26;94508.63;;;4.82;100.00
11099;BME280;12223;42.650;23.364;2022-12-07T03:05:09;94488.44;;;4.69;100.00
11099;BME280;12223;42.650;23.364;2022-12-07T03:07:44;94476.88;;;4.85;100.00
11099;BME280;12223;42.650;23.364;2022-12-07T03:10:19;94470.72;;;4.99;100.00
11099;BME280;12223;42.650;23.364;2022-12-07T03:12:56;94470.78;;;5.06;100.00
11099;BME280;12223;42.650;23.364;2022-12-07T03:15:32;94470.53;;;5.01;100.00
11099;BME280;12223;42.650;23.364;2022-12-07T03:18:01;94463.25;;;4.96;100.00
11099;BME280;12223;42.650;23.364;2022-12-07T03:20:31;94459.38;;;5.26;100.00
11099;BME280;12223;42.650;23.364;2022-12-07T03:23:00;94473.72;;;5.31;100.00
11099;BME280;12223;42.650;23.364;2022-12-07T03:25:27;94479.56;;;5.33;100.00
11099;BME280;12223;42.650;23.364;2022-12-07T03:27:57;94494.22;;;5.27;100.00
11099;BME280;12223;42.650;23.364;2022-12-07T03:30:29;94502.84;;;5.21;100.00
11099;BME280;12223;42.650;23.364;2022-12-07T03:33:01;94518.56;;;5.21;100.00
11099;BME280;12223;42.650;23.364;2022-12-07T03:35:33;94512.66;;;5.12;100.00
11099;BME280;12223;42.650;23.364;2022-12-07T03:38:08;94511.13;;;5.18;100.00
11099;BME280;12223;42.650;23.364;2022-12-07T03:40:44;94517.06;;;5.05;100.00
11099;BME280;12223;42.650;23.364;2022-12-07T03:43:16;94510.03;;;5.12;100.00
11099;BME280;12223;42.650;23.364;2022-12-07T03:45:54;94503.88;;;5.26;100.00
11099;BME280;12223;42.650;23.364;2022-12-07T03:48:29;94521.44;;;5.33;100.00
11099;BME280;12223;42.650;23.364;2022-12-07T03:51:06;94516.97;;;5.26;100.00
11099;BME280;12223;42.650;23.364;2022-12-07T03:53:39;94512.88;;;5.11;100.00
11099;BME280;12223;42.650;23.364;2022-12-07T03:56:09;94501.31;;;4.99;100.00
11099;BME280;12223;42.650;23.364;2022-12-07T03:58:38;94491.81;;;4.91;100.00
11099;BME280;12223;42.650;23.364;2022-12-07T04:01:07;94483.16;;;4.91;100.00
11099;BME280;12223;42.650;23.364;2022-12-07T04:03:34;94491.63;;;4.93;100.00
11099;BME280;12223;42.650;23.364;2022-12-07T04:06:01;94487.16;;;4.87;100.00
11099;BME280;12223;42.650;23.364;2022-12-07T04:08:28;94488.00;;;4.94;100.00
11099;BME280;12223;42.650;23.364;2022-12-07T04:10:55;94495.69;;;5.02;100.00
11099;BME280;12223;42.650;23.364;2022-12-07T04:13:21;94505.75;;;4.98;100.00
11099;BME280;12223;42.650;23.364;2022-12-07T04:15:48;94513.59;;;4.98;100.00
11099;BME280;12223;42.650;23.364;2022-12-07T04:18:16;94511.94;;;4.91;100.00
11099;BME280;12223;42.650;23.364;2022-12-07T04:20:43;94499.84;;;4.90;100.00
11099;BME280;12223;42.650;23.364;2022-12-07T04:23:10;94495.50;;;4.75;100.00
11099;BME280;12223;42.650;23.364;2022-12-07T04:25:36;94499.56;;;4.78;100.00
11099;BME280;12223;42.650;23.364;2022-12-07T04:28:03;94520.91;;;4.81;100.00
11099;BME280;12223;42.650;23.364;2022-12-07T04:30:30;94521.13;;;4.80;100.00
11099;BME280;12223;42.650;23.364;2022-12-07T04:32:57;94517.47;;;4.81;100.00
11099;BME280;12223;42.650;23.364;2022-12-07T04:35:25;94515.09;;;4.79;100.00
11099;BME280;12223;42.650;23.364;2022-12-07T04:37:52;94507.53;;;4.70;100.00
11099;BME280;12223;42.650;23.364;2022-12-07T04:40:19;94508.47;;;4.62;100.00
11099;BME280;12223;42.650;23.364;2022-12-07T04:42:45;94511.50;;;4.59;100.00
11099;BME280;12223;42.650;23.364;2022-12-07T04:45:12;94515.44;;;4.49;100.00
11099;BME280;12223;42.650;23.364;2022-12-07T04:47:39;94509.22;;;4.28;100.00
11099;BME280;12223;42.650;23.364;2022-12-07T04:50:07;94500.63;;;4.34;100.00
11099;BME280;12223;42.650;23.364;2022-12-07T04:52:35;94505.41;;;4.52;100.00
11099;BME280;12223;42.650;23.364;2022-12-07T04:55:02;94511.91;;;4.63;100.00
11099;BME280;12223;42.650;23.364;2022-12-07T04:57:29;94504.53;;;4.45;100.00
11099;BME280;12223;42.650;23.364;2022-12-07T04:59:55;94497.50;;;4.45;100.00
11099;BME280;12223;42.650;23.364;2022-12-07T05:02:22;94508.53;;;4.41;100.00
11099;BME280;12223;42.650;23.364;2022-12-07T05:04:49;94513.06;;;4.54;100.00
11099;BME280;12223;42.650;23.364;2022-12-07T05:07:16;94504.28;;;4.61;100.00
11099;BME280;12223;42.650;23.364;2022-12-07T05:09:44;94523.94;;;4.57;100.00
11099;BME280;12223;42.650;23.364;2022-12-07T05:12:10;94521.16;;;4.59;100.00
11099;BME280;12223;42.650;23.364;2022-12-07T05:14:37;94514.00;;;4.46;100.00
11099;BME280;12223;42.650;23.364;2022-12-07T05:17:04;94512.94;;;4.40;100.00
11099;BME280;12223;42.650;23.364;2022-12-07T05:19:31;94525.78;;;4.35;100.00
11099;BME280;12223;42.650;23.364;2022-12-07T05:21:57;94517.47;;;4.32;100.00
11099;BME280;12223;42.650;23.364;2022-12-07T05:24:24;94515.56;;;4.40;100.00
11099;BME280;12223;42.650;23.364;2022-12-07T05:26:52;94509.28;;;4.35;100.00
11099;BME280;12223;42.650;23.364;2022-12-07T05:29:19;94510.91;;;4.36;100.00
11099;BME280;12223;42.650;23.364;2022-12-07T05:31:46;94503.53;;;4.25;100.00
11099;BME280;12223;42.650;23.364;2022-12-07T05:34:13;94502.72;;;4.24;100.00
11099;BME280;12223;42.650;23.364;2022-12-07T05:36:39;94509.41;;;4.48;100.00
11099;BME280;12223;42.650;23.364;2022-12-07T05:39:06;94512.06;;;4.33;100.00
11099;BME280;12223;42.650;23.364;2022-12-07T05:41:33;94485.63;;;4.22;100.00
11099;BME280;12223;42.650;23.364;2022-12-07T05:44:19;94489.41;;;4.40;100.00
11099;BME280;12223;42.650;23.364;2022-12-07T05:46:46;94491.41;;;4.38;100.00
11099;BME280;12223;42.650;23.364;2022-12-07T05:49:13;94495.81;;;4.38;100.00
11099;BME280;12223;42.650;23.364;2022-12-07T05:51:39;94500.19;;;4.31;100.00
11099;BME280;12223;42.650;23.364;2022-12-07T05:54:06;94479.59;;;4.42;100.00
11099;BME280;12223;42.650;23.364;2022-12-07T05:56:33;94464.25;;;4.61;100.00
11099;BME280;12223;42.650;23.364;2022-12-07T05:59:00;94455.22;;;4.70;100.00
11099;BME280;12223;42.650;23.364;2022-12-07T06:01:46;94450.00;;;4.70;100.00
11099;BME280;12223;42.650;23.364;2022-12-07T06:04:13;94444.00;;;4.76;100.00
11099;BME280;12223;42.650;23.364;2022-12-07T06:06:39;94446.13;;;4.94;100.00
11099;BME280;12223;42.650;23.364;2022-12-07T06:09:06;94459.84;;;4.96;100.00
11099;BME280;12223;42.650;23.364;2022-12-07T06:11:33;94469.78;;;4.79;100.00
11099;BME280;12223;42.650;23.364;2022-12-07T06:14:17;94455.50;;;4.81;100.00
11099;BME280;12223;42.650;23.364;2022-12-07T06:16:43;94459.28;;;5.07;100.00
11099;BME280;12223;42.650;23.364;2022-12-07T06:19:12;94486.84;;;5.03;100.00
11099;BME280;12223;42.650;23.364;2022-12-07T06:21:38;94481.97;;;4.93;100.00
11099;BME280;12223;42.650;23.364;2022-12-07T06:24:06;94486.81;;;4.96;100.00
11099;BME280;12223;42.650;23.364;2022-12-07T06:26:33;94493.34;;;5.13;100.00
11099;BME280;12223;42.650;23.364;2022-12-07T06:28:59;94510.34;;;5.24;100.00
11099;BME280;12223;42.650;23.364;2022-12-07T06:31:26;94530.59;;;5.43;100.00
11099;BME280;12223;42.650;23.364;2022-12-07T06:33:57;94554.97;;;5.50;100.00
11099;BME280;12223;42.650;23.364;2022-12-07T06:36:26;94556.97;;;5.42;100.00
11099;BME280;12223;42.650;23.364;2022-12-07T06:38:53;94571.25;;;5.39;100.00
11099;BME280;12223;42.650;23.364;2022-12-07T06:41:19;94566.44;;;5.43;100.00
11099;BME280;12223;42.650;23.364;2022-12-07T06:43:46;94581.22;;;5.22;100.00
11099;BME280;12223;42.650;23.364;2022-12-07T06:46:13;94562.69;;;5.24;100.00
11099;BME280;12223;42.650;23.364;2022-12-07T06:48:40;94576.75;;;5.51;100.00
11099;BME280;12223;42.650;23.364;2022-12-07T06:51:07;94585.50;;;5.64;100.00
11099;BME280;12223;42.650;23.364;2022-12-07T06:53:36;94571.41;;;5.65;100.00
11099;BME280;12223;42.650;23.364;2022-12-07T06:56:03;94567.81;;;5.73;100.00
11099;BME280;12223;42.650;23.364;2022-12-07T06:58:31;94567.00;;;5.73;100.00
11099;BME280;12223;42.650;23.364;2022-12-07T07:00:57;94570.69;;;5.85;100.00
11099;BME280;12223;42.650;23.364;2022-12-07T07:03:24;94578.41;;;5.93;100.00
11099;BME280;12223;42.650;23.364;2022-12-07T07:05:51;94573.78;;;6.01;100.00
11099;BME280;12223;42.650;23.364;2022-12-07T07:08:18;94584.53;;;6.07;100.00
11099;BME280;12223;42.650;23.364;2022-12-07T07:10:46;94579.72;;;6.17;100.00
11099;BME280;12223;42.650;23.364;2022-12-07T07:13:13;94582.34;;;6.23;100.00
11099;BME280;12223;42.650;23.364;2022-12-07T07:15:40;94581.59;;;6.42;100.00
11099;BME280;12223;42.650;23.364;2022-12-07T07:18:06;94596.56;;;6.55;100.00
11099;BME280;12223;42.650;23.364;2022-12-07T07:20:33;94594.31;;;6.52;100.00
11099;BME280;12223;42.650;23.364;2022-12-07T07:23:00;94592.09;;;6.42;100.00
11099;BME280;12223;42.650;23.364;2022-12-07T07:25:27;94596.16;;;6.65;100.00
11099;BME280;12223;42.650;23.364;2022-12-07T07:27:55;94607.09;;;6.81;100.00
11099;BME280;12223;42.650;23.364;2022-12-07T07:30:22;94604.28;;;6.76;100.00
11099;BME280;12223;42.650;23.364;2022-12-07T07:32:49;94602.69;;;6.89;100.00
11099;BME280;12223;42.650;23.364;2022-12-07T07:35:16;94604.47;;;7.21;100.00
11099;BME280;12223;42.650;23.364;2022-12-07T07:37:42;94626.69;;;7.71;100.00
11099;BME280;12223;42.650;23.364;2022-12-07T07:40:10;94636.94;;;7.92;100.00
11099;BME280;12223;42.650;23.364;2022-12-07T07:42:37;94604.75;;;7.97;100.00
11099;BME280;12223;42.650;23.364;2022-12-07T07:45:06;94642.13;;;8.25;100.00
11099;BME280;12223;42.650;23.364;2022-12-07T07:47:33;94655.06;;;8.33;100.00
11099;BME280;12223;42.650;23.364;2022-12-07T07:50:00;94642.53;;;8.73;100.00
11099;BME280;12223;42.650;23.364;2022-12-07T07:52:27;94651.25;;;9.05;100.00
11099;BME280;12223;42.650;23.364;2022-12-07T07:54:53;94649.47;;;9.31;100.00
11099;BME280;12223;42.650;23.364;2022-12-07T07:57:20;94651.78;;;9.45;100.00
11099;BME280;12223;42.650;23.364;2022-12-07T07:59:47;94658.59;;;9.78;100.00
11099;BME280;12223;42.650;23.364;2022-12-07T08:02:16;94670.19;;;10.20;100.00
11099;BME280;12223;42.650;23.364;2022-12-07T08:04:44;94674.28;;;10.16;100.00
11099;BME280;12223;42.650;23.364;2022-12-07T08:07:12;94669.13;;;10.02;100.00
11099;BME280;12223;42.650;23.364;2022-12-07T08:09:39;94669.38;;;9.76;100.00
11099;BME280;12223;42.650;23.364;2022-12-07T08:12:06;94674.66;;;9.76;100.00
11099;BME280;12223;42.650;23.364;2022-12-07T08:14:33;94669.06;;;9.66;100.00
11099;BME280;12223;42.650;23.364;2022-12-07T08:17:00;94677.34;;;9.45;100.00
11099;BME280;12223;42.650;23.364;2022-12-07T08:19:29;94658.25;;;9.18;100.00
11099;BME280;12223;42.650;23.364;2022-12-07T08:21:56;94665.06;;;9.01;100.00
11099;BME280;12223;42.650;23.364;2022-12-07T08:24:23;94655.66;;;8.80;100.00
11099;BME280;12223;42.650;23.364;2022-12-07T08:26:50;94659.41;;;8.66;100.00
11099;BME280;12223;42.650;23.364;2022-12-07T08:29:17;94655.66;;;8.80;100.00
11099;BME280;12223;42.650;23.364;2022-12-07T08:31:45;94650.06;;;9.01;100.00
11099;BME280;12223;42.650;23.364;2022-12-07T08:34:12;94668.06;;;9.04;100.00
11099;BME280;12223;42.650;23.364;2022-12-07T08:36:41;94653.84;;;8.80;100.00
11099;BME280;12223;42.650;23.364;2022-12-07T08:39:08;94658.34;;;8.67;100.00
11099;BME280;12223;42.650;23.364;2022-12-07T08:41:35;94657.63;;;8.53;100.00
11099;BME280;12223;42.650;23.364;2022-12-07T08:44:02;94622.72;;;8.13;100.00
11099;BME280;12223;42.650;23.364;2022-12-07T08:46:32;94652.19;;;8.41;100.00
11099;BME280;12223;42.650;23.364;2022-12-07T08:49:06;94651.63;;;8.39;100.00
11099;BME280;12223;42.650;23.364;2022-12-07T08:51:36;94649.75;;;8.46;100.00
11099;BME280;12223;42.650;23.364;2022-12-07T08:54:07;94639.72;;;8.68;100.00
11099;BME280;12223;42.650;23.364;2022-12-07T08:56:35;94646.38;;;8.77;100.00
11099;BME280;12223;42.650;23.364;2022-12-07T08:59:02;94645.72;;;8.82;100.00
11099;BME280;12223;42.650;23.364;2022-12-07T09:01:31;94625.59;;;8.94;100.00
11099;BME280;12223;42.650;23.364;2022-12-07T09:03:58;94631.31;;;8.91;100.00
11099;BME280;12223;42.650;23.364;2022-12-07T09:06:25;94638.56;;;8.96;100.00
11099;BME280;12223;42.650;23.364;2022-12-07T09:08:54;94632.66;;;9.00;100.00
11099;BME280;12223;42.650;23.364;2022-12-07T09:11:23;94637.63;;;9.15;100.00
11099;BME280;12223;42.650;23.364;2022-12-07T09:13:49;94633.75;;;9.17;100.00
11099;BME280;12223;42.650;23.364;2022-12-07T09:16:16;94639.06;;;9.11;100.00
11099;BME280;12223;42.650;23.364;2022-12-07T09:18:43;94623.81;;;9.19;100.00
11099;BME280;12223;42.650;23.364;2022-12-07T09:21:10;94619.75;;;9.17;100.00
11099;BME280;12223;42.650;23.364;2022-12-07T09:23:36;94614.78;;;9.09;100.00
11099;BME280;12223;42.650;23.364;2022-12-07T09:26:04;94616.72;;;9.20;100.00
11099;BME280;12223;42.650;23.364;2022-12-07T09:28:32;94609.91;;;9.06;100.00
11099;BME280;12223;42.650;23.364;2022-12-07T09:30:59;94610.00;;;8.93;100.00
11099;BME280;12223;42.650;23.364;2022-12-07T09:33:26;94611.78;;;8.67;100.00
11099;BME280;12223;42.650;23.364;2022-12-07T09:35:52;94610.28;;;8.46;100.00
11099;BME280;12223;42.650;23.364;2022-12-07T09:38:20;94601.63;;;8.77;100.00
11099;BME280;12223;42.650;23.364;2022-12-07T09:40:47;94592.22;;;8.88;100.00
11099;BME280;12223;42.650;23.364;2022-12-07T09:43:15;94601.44;;;9.04;100.00
11099;BME280;12223;42.650;23.364;2022-12-07T09:45:47;94601.19;;;9.05;100.00
11099;BME280;12223;42.650;23.364;2022-12-07T09:48:17;94595.84;;;9.18;100.00
11099;BME280;12223;42.650;23.364;2022-12-07T09:50:46;94588.75;;;9.19;100.00
11099;BME280;12223;42.650;23.364;2022-12-07T09:53:17;94594.78;;;9.26;100.00
11099;BME280;12223;42.650;23.364;2022-12-07T09:55:47;94588.28;;;9.28;100.00
11099;BME280;12223;42.650;23.364;2022-12-07T09:58:19;94594.59;;;9.46;100.00
11099;BME280;12223;42.650;23.364;2022-12-07T10:00:48;94593.13;;;9.50;100.00
11099;BME280;12223;42.650;23.364;2022-12-07T10:03:15;94589.88;;;9.54;100.00
11099;BME280;12223;42.650;23.364;2022-12-07T10:05:45;94588.47;;;9.52;100.00
11099;BME280;12223;42.650;23.364;2022-12-07T10:08:14;94578.00;;;9.20;100.00
11099;BME280;12223;42.650;23.364;2022-12-07T10:10:43;94572.34;;;9.17;100.00
11099;BME280;12223;42.650;23.364;2022-12-07T10:13:11;94571.91;;;9.45;100.00
11099;BME280;12223;42.650;23.364;2022-12-07T10:15:50;94564.94;;;9.50;100.00
11099;BME280;12223;42.650;23.364;2022-12-07T10:21:10;94558.19;;;9.61;100.00
11099;BME280;12223;42.650;23.364;2022-12-07T10:23:39;94563.28;;;9.74;100.00
11099;BME280;12223;42.650;23.364;2022-12-07T10:26:20;94560.88;;;9.91;100.00
11099;BME280;12223;42.650;23.364;2022-12-07T10:28:52;94560.50;;;10.05;100.00
11099;BME280;12223;42.650;23.364;2022-12-07T10:31:22;94551.56;;;10.25;100.00
11099;BME280;12223;42.650;23.364;2022-12-07T10:33:51;94554.16;;;10.61;100.00
11099;BME280;12223;42.650;23.364;2022-12-07T10:36:21;94544.69;;;10.83;100.00
11099;BME280;12223;42.650;23.364;2022-12-07T10:38:50;94532.50;;;10.82;100.00
11099;BME280;12223;42.650;23.364;2022-12-07T10:41:17;94533.78;;;10.92;100.00
11099;BME280;12223;42.650;23.364;2022-12-07T10:43:50;94546.53;;;10.95;100.00
11099;BME280;12223;42.650;23.364;2022-12-07T10:46:41;94527.22;;;10.82;100.00
11099;BME280;12223;42.650;23.364;2022-12-07T10:49:40;94524.84;;;10.93;100.00
11099;BME280;12223;42.650;23.364;2022-12-07T10:52:15;94538.38;;;10.96;100.00
11099;BME280;12223;42.650;23.364;2022-12-07T10:54:50;94531.25;;;10.97;100.00
11099;BME280;12223;42.650;23.364;2022-12-07T10:57:30;94517.03;;;11.09;100.00
11099;BME280;12223;42.650;23.364;2022-12-07T11:00:04;94518.41;;;11.00;100.00
11099;BME280;12223;42.650;23.364;2022-12-07T11:02:53;94516.22;;;11.09;100.00
11099;BME280;12223;42.650;23.364;2022-12-07T11:05:29;94499.69;;;11.13;100.00
11099;BME280;12223;42.650;23.364;2022-12-07T11:08:11;94489.53;;;10.75;100.00
11099;BME280;12223;42.650;23.364;2022-12-07T11:10:44;94502.72;;;10.75;100.00
11099;BME280;12223;42.650;23.364;2022-12-07T11:13:24;94498.31;;;10.58;100.00
11099;BME280;12223;42.650;23.364;2022-12-07T11:16:14;94502.00;;;10.57;100.00
11099;BME280;12223;42.650;23.364;2022-12-07T11:18:52;94500.28;;;10.62;100.00
11099;BME280;12223;42.650;23.364;2022-12-07T11:21:24;94504.22;;;10.71;100.00
11099;BME280;12223;42.650;23.364;2022-12-07T11:24:00;94497.34;;;10.82;100.00
11099;BME280;12223;42.650;23.364;2022-12-07T11:26:50;94480.38;;;10.89;100.00
11099;BME280;12223;42.650;23.364;2022-12-07T11:32:39;94487.78;;;10.58;100.00
11099;BME280;12223;42.650;23.364;2022-12-07T11:35:14;94470.47;;;10.73;100.00
11099;BME280;12223;42.650;23.364;2022-12-07T11:37:46;94466.53;;;10.64;100.00
11099;BME280;12223;42.650;23.364;2022-12-07T11:40:17;94469.19;;;10.23;100.00
11099;BME280;12223;42.650;23.364;2022-12-07T11:42:49;94464.75;;;10.35;100.00
11099;BME280;12223;42.650;23.364;2022-12-07T11:45:22;94470.72;;;10.12;100.00
11099;BME280;12223;42.650;23.364;2022-12-07T11:47:55;94467.06;;;10.13;100.00
11099;BME280;12223;42.650;23.364;2022-12-07T11:50:30;94461.28;;;10.23;100.00
11099;BME280;12223;42.650;23.364;2022-12-07T11:53:02;94463.69;;;10.24;100.00
11099;BME280;12223;42.650;23.364;2022-12-07T11:55:40;94449.25;;;10.38;100.00
11099;BME280;12223;42.650;23.364;2022-12-07T11:58:19;94448.72;;;10.48;100.00
11099;BME280;12223;42.650;23.364;2022-12-07T12:00:48;94452.97;;;10.49;100.00
11099;BME280;12223;42.650;23.364;2022-12-07T12:03:23;94451.16;;;10.61;100.00
11099;BME280;12223;42.650;23.364;2022-12-07T12:05:57;94451.16;;;10.61;100.00
11099;BME280;12223;42.650;23.364;2022-12-07T12:08:27;94444.06;;;10.73;100.00
11099;BME280;12223;42.650;23.364;2022-12-07T12:11:02;94434.66;;;10.77;100.00
11099;BME280;12223;42.650;23.364;2022-12-07T12:16:57;94431.97;;;10.54;100.00
11099;BME280;12223;42.650;23.364;2022-12-07T12:19:33;94422.06;;;10.49;100.00
11099;BME280;12223;42.650;23.364;2022-12-07T12:22:10;94420.94;;;10.57;100.00
11099;BME280;12223;42.650;23.364;2022-12-07T12:24:39;94418.19;;;10.40;100.00
11099;BME280;12223;42.650;23.364;2022-12-07T12:27:15;94425.88;;;10.42;100.00
11099;BME280;12223;42.650;23.364;2022-12-07T12:29:44;94415.66;;;10.45;100.00
11099;BME280;12223;42.650;23.364;2022-12-07T12:32:15;94417.88;;;10.60;100.00
11099;BME280;12223;42.650;23.364;2022-12-07T12:35:02;94415.56;;;10.75;100.00
11099;BME280;12223;42.650;23.364;2022-12-07T12:37:41;94407.66;;;10.75;100.00
11099;BME280;12223;42.650;23.364;2022-12-07T12:43:43;94394.31;;;10.35;100.00
11099;BME280;12223;42.650;23.364;2022-12-07T12:46:36;94397.81;;;10.18;100.00
11099;BME280;12223;42.650;23.364;2022-12-07T12:55:22;94399.13;;;10.08;100.00
11099;BME280;12223;42.650;23.364;2022-12-07T12:58:29;94401.50;;;10.17;100.00
11099;BME280;12223;42.650;23.364;2022-12-07T13:04:21;94401.22;;;9.88;100.00
11099;BME280;12223;42.650;23.364;2022-12-07T13:06:50;94404.59;;;10.25;100.00
11099;BME280;12223;42.650;23.364;2022-12-07T13:09:20;94400.41;;;10.59;100.00
11099;BME280;12223;42.650;23.364;2022-12-07T13:11:56;94391.78;;;10.75;100.00
11099;BME280;12223;42.650;23.364;2022-12-07T13:14:55;94399.88;;;10.80;100.00
11099;BME280;12223;42.650;23.364;2022-12-07T13:20:55;94406.84;;;10.63;100.00
11099;BME280;12223;42.650;23.364;2022-12-07T13:23:29;94414.91;;;10.68;100.00
11099;BME280;12223;42.650;23.364;2022-12-07T13:26:02;94404.88;;;10.70;100.00
11099;BME280;12223;42.650;23.364;2022-12-07T13:28:37;94409.69;;;10.50;100.00
11099;BME280;12223;42.650;23.364;2022-12-07T13:31:14;94404.59;;;10.25;100.00
11099;BME280;12223;42.650;23.364;2022-12-07T13:33:43;94403.75;;;10.55;100.00
11099;BME280;12223;42.650;23.364;2022-12-07T13:36:20;94389.03;;;10.47;100.00
11099;BME280;12223;42.650;23.364;2022-12-07T13:38:53;94396.41;;;10.68;100.00